createdAt,value
2018-05-21T00:00:08.867Z,95.00
2018-05-21T00:02:37.116Z,94.90
2018-05-21T00:05:06.137Z,95.10
2018-05-21T00:07:34.398Z,95.00
2018-05-21T00:10:03.408Z,96.10
2018-05-21T00:12:31.664Z,96.00
2018-05-21T00:15:00.667Z,96.70
2018-05-21T00:17:28.929Z,96.70
2018-05-21T00:19:57.936Z,97.50
2018-05-21T00:22:26.955Z,97.60
2018-05-21T00:24:55.205Z,97.50
2018-05-21T00:27:24.220Z,98.60
2018-05-21T00:29:52.462Z,98.60
2018-05-21T00:32:21.485Z,98.90
2018-05-21T00:34:49.731Z,98.80
2018-05-21T00:37:18.771Z,99.80
2018-05-21T00:39:47.019Z,99.70
2018-05-21T00:42:15.271Z,99.60
2018-05-21T00:44:44.292Z,99.90
2018-05-21T00:47:12.548Z,99.90
2018-05-21T00:49:41.564Z,99.90
2018-05-21T00:52:09.816Z,99.90
2018-05-21T00:54:38.844Z,99.90
2018-05-21T00:57:07.080Z,99.90
2018-05-21T00:59:36.103Z,99.90
2018-05-21T01:02:04.355Z,99.90
2018-05-21T01:04:33.379Z,99.90
2018-05-21T01:07:01.640Z,99.90
2018-05-21T01:09:29.883Z,99.90
2018-05-21T01:11:58.127Z,99.90
2018-05-21T01:14:26.383Z,99.90
2018-05-21T01:16:54.880Z,99.90
2018-05-21T01:19:23.136Z,99.90
2018-05-21T01:21:51.379Z,99.90
2018-05-21T01:24:20.391Z,99.90
2018-05-21T01:26:48.637Z,99.90
2018-05-21T01:29:17.662Z,99.90
2018-05-21T01:31:45.899Z,99.90
2018-05-21T01:34:14.161Z,99.90
2018-05-21T01:36:42.401Z,99.90
2018-05-21T01:39:10.651Z,99.90
2018-05-21T01:41:38.896Z,99.90
2018-05-21T01:44:07.157Z,99.90
2018-05-21T01:46:35.411Z,99.90
2018-05-21T01:49:03.658Z,99.90
2018-05-21T01:51:31.916Z,99.90
2018-05-21T01:54:00.928Z,99.90
2018-05-21T01:56:29.178Z,99.90
2018-05-21T01:58:58.188Z,99.90
2018-05-21T02:01:27.207Z,99.90
2018-05-21T02:03:55.455Z,99.90
2018-05-21T02:06:24.468Z,99.90
2018-05-21T02:08:52.719Z,99.90
2018-05-21T02:11:21.739Z,99.90
2018-05-21T02:13:49.984Z,99.90
2018-05-21T02:16:19.004Z,99.90
2018-05-21T02:18:47.255Z,99.90
2018-05-21T02:21:16.272Z,99.90
2018-05-21T02:23:44.518Z,99.90
2018-05-21T02:26:13.540Z,99.90
2018-05-21T02:28:41.779Z,99.90
2018-05-21T02:31:10.797Z,99.90
2018-05-21T02:33:39.049Z,99.90
2018-05-21T02:36:07.297Z,99.90
2018-05-21T02:38:35.537Z,99.90
2018-05-21T02:41:03.788Z,99.90
2018-05-21T02:43:32.804Z,99.90
2018-05-21T02:46:01.047Z,99.90
2018-05-21T02:48:30.067Z,99.90
2018-05-21T02:50:58.311Z,99.90
2018-05-21T02:53:27.339Z,99.90
2018-05-21T02:55:55.595Z,99.90
2018-05-21T02:58:24.608Z,99.90
2018-05-21T03:00:52.855Z,99.90
2018-05-21T03:03:21.875Z,99.90
2018-05-21T03:05:50.124Z,99.90
2018-05-21T03:08:19.143Z,99.90
2018-05-21T03:10:47.380Z,99.90
2018-05-21T03:13:15.628Z,99.90
2018-05-21T03:15:43.874Z,99.90
2018-05-21T03:18:12.133Z,99.90
2018-05-21T03:20:41.137Z,99.90
2018-05-21T03:23:09.387Z,99.90
2018-05-21T03:25:38.400Z,99.90
2018-05-21T03:28:06.654Z,99.90
2018-05-21T03:30:35.660Z,99.90
2018-05-21T03:33:04.674Z,99.90
2018-05-21T03:35:32.921Z,99.90
2018-05-21T03:38:01.942Z,99.90
2018-05-21T03:40:30.192Z,99.90
2018-05-21T03:42:59.211Z,99.90
2018-05-21T03:45:27.452Z,99.90
2018-05-21T03:47:56.482Z,99.90
2018-05-21T03:50:24.730Z,99.90
2018-05-21T03:52:53.751Z,99.90
2018-05-21T03:55:22.003Z,99.90
2018-05-21T03:57:50.256Z,99.90
2018-05-21T04:00:36.259Z,99.90
2018-05-21T04:03:22.980Z,99.90
2018-05-21T04:05:52.045Z,99.90
2018-05-21T04:08:20.291Z,99.90
2018-05-21T04:10:48.553Z,99.90
2018-05-21T04:13:16.797Z,99.90
2018-05-21T04:15:45.806Z,99.90
2018-05-21T04:18:14.066Z,99.90
2018-05-21T04:20:43.091Z,99.90
2018-05-21T04:23:11.331Z,99.90
2018-05-21T04:25:40.406Z,99.90
2018-05-21T04:28:08.599Z,99.90
2018-05-21T04:30:37.620Z,99.90
2018-05-21T04:33:05.867Z,99.90
2018-05-21T04:35:34.883Z,99.90
2018-05-21T04:38:03.130Z,99.90
2018-05-21T04:40:32.150Z,99.90
2018-05-21T04:43:00.411Z,99.90
2018-05-21T04:45:29.431Z,99.90
2018-05-21T04:47:57.679Z,99.90
2018-05-21T04:50:25.932Z,99.90
2018-05-21T04:52:54.176Z,99.90
2018-05-21T04:55:22.436Z,99.90
2018-05-21T04:57:50.686Z,99.90
2018-05-21T05:00:18.944Z,99.90
2018-05-21T05:02:47.957Z,99.90
2018-05-21T05:05:16.204Z,99.90
2018-05-21T05:07:45.221Z,99.90
2018-05-21T05:10:13.476Z,99.90
2018-05-21T05:12:42.481Z,99.90
2018-05-21T05:15:11.500Z,99.90
2018-05-21T05:17:39.747Z,99.90
2018-05-21T05:20:08.764Z,99.90
2018-05-21T05:22:37.011Z,99.90
2018-05-21T05:25:06.034Z,99.90
2018-05-21T05:27:34.280Z,99.90
2018-05-21T05:30:03.312Z,99.90
2018-05-21T05:32:31.568Z,99.90
2018-05-21T05:34:59.819Z,99.90
2018-05-21T05:37:28.835Z,99.90
2018-05-21T05:39:57.091Z,99.90
2018-05-21T05:42:26.112Z,99.90
2018-05-21T05:44:54.582Z,99.90
2018-05-21T05:47:22.833Z,99.90
2018-05-21T05:49:51.845Z,99.90
2018-05-21T05:52:20.864Z,99.90
2018-05-21T05:54:49.112Z,99.90
2018-05-21T05:57:18.134Z,99.90
2018-05-21T05:59:46.375Z,99.90
2018-05-21T06:02:15.397Z,99.90
2018-05-21T06:04:43.640Z,99.90
2018-05-21T06:07:13.263Z,99.90
2018-05-21T06:09:41.506Z,99.90
2018-05-21T06:12:09.760Z,99.90
2018-05-21T06:14:38.009Z,99.90
2018-05-21T06:17:06.263Z,99.90
2018-05-21T06:19:35.272Z,99.90
2018-05-21T06:22:03.535Z,99.90
2018-05-21T06:24:31.776Z,99.90
2018-05-21T06:27:00.011Z,99.90
2018-05-21T06:29:28.259Z,99.90
2018-05-21T06:31:56.499Z,99.90
2018-05-21T06:34:24.862Z,99.90
2018-05-21T06:36:52.987Z,99.90
2018-05-21T06:39:21.240Z,99.90
2018-05-21T06:41:50.248Z,99.90
2018-05-21T06:44:19.260Z,99.90
2018-05-21T06:46:47.520Z,99.90
2018-05-21T06:49:16.523Z,99.90
2018-05-21T06:51:44.767Z,99.90
2018-05-21T06:54:13.019Z,99.90
2018-05-21T06:56:41.257Z,99.90
2018-05-21T06:59:09.508Z,99.90
2018-05-21T07:01:38.522Z,99.90
2018-05-21T07:04:06.776Z,99.90
2018-05-21T07:06:35.790Z,99.90
2018-05-21T07:09:04.086Z,99.90
2018-05-21T07:11:33.090Z,99.90
2018-05-21T07:14:01.364Z,99.90
2018-05-21T07:16:29.632Z,99.90
2018-05-21T07:18:57.903Z,99.90
2018-05-21T07:21:26.184Z,99.90
2018-05-21T07:23:54.463Z,99.90
2018-05-21T07:26:22.738Z,99.90
2018-05-21T07:28:51.000Z,99.90
2018-05-21T07:31:19.274Z,99.90
2018-05-21T07:33:47.541Z,99.90
2018-05-21T07:36:15.817Z,99.90
2018-05-21T07:38:44.119Z,99.90
2018-05-21T07:41:12.369Z,99.90
2018-05-21T07:43:40.625Z,99.90
2018-05-21T07:46:09.660Z,99.90
2018-05-21T07:48:37.924Z,99.90
2018-05-21T07:51:06.201Z,99.90
2018-05-21T07:53:34.471Z,99.90
2018-05-21T07:56:02.744Z,99.90
2018-05-21T07:58:31.013Z,99.90
2018-05-21T08:00:59.306Z,99.90
2018-05-21T08:03:27.561Z,99.90
2018-05-21T08:05:56.592Z,99.90
2018-05-21T08:08:24.890Z,99.90
2018-05-21T08:10:53.146Z,99.90
2018-05-21T08:13:21.387Z,99.90
2018-05-21T08:15:49.646Z,99.90
2018-05-21T08:18:18.664Z,99.90
2018-05-21T08:20:46.899Z,99.90
2018-05-21T08:23:15.151Z,99.90
2018-05-21T08:25:43.404Z,99.90
2018-05-21T08:28:11.657Z,99.90
2018-05-21T08:30:39.896Z,99.90
2018-05-21T08:33:08.149Z,99.90
2018-05-21T08:35:36.385Z,99.90
2018-05-21T08:38:04.636Z,99.60
2018-05-21T08:40:33.645Z,99.90
2018-05-21T08:43:01.894Z,99.90
2018-05-21T08:45:30.134Z,99.50
2018-05-21T08:47:58.454Z,98.80
2018-05-21T08:50:26.728Z,99.30
2018-05-21T08:52:55.787Z,98.60
2018-05-21T08:55:24.065Z,98.60
2018-05-21T08:57:52.335Z,98.10
2018-05-21T09:00:20.599Z,98.10
2018-05-21T09:02:48.820Z,98.50
2018-05-21T09:05:17.065Z,98.30
2018-05-21T09:07:45.326Z,97.80
2018-05-21T09:10:13.564Z,98.00
2018-05-21T09:12:42.572Z,97.40
2018-05-21T09:15:10.831Z,97.40
2018-05-21T09:17:39.832Z,97.30
2018-05-21T09:20:08.086Z,97.30
2018-05-21T09:22:36.368Z,96.80
2018-05-21T09:25:04.572Z,96.70
2018-05-21T09:27:32.807Z,96.70
2018-05-21T09:30:01.829Z,97.00
2018-05-21T09:32:30.110Z,96.90
2018-05-21T09:34:59.100Z,96.40
2018-05-21T09:37:27.332Z,96.30
2018-05-21T09:39:55.582Z,97.10
2018-05-21T09:42:23.819Z,96.30
2018-05-21T09:44:52.076Z,96.60
2018-05-21T09:47:20.303Z,95.40
2018-05-21T09:49:48.570Z,95.40
2018-05-21T09:52:16.815Z,95.80
2018-05-21T09:54:45.837Z,96.10
2018-05-21T09:57:14.080Z,96.10
2018-05-21T09:59:43.092Z,95.40
2018-05-21T10:02:11.341Z,95.40
2018-05-21T10:04:40.368Z,95.90
2018-05-21T10:07:08.607Z,95.80
2018-05-21T10:09:37.607Z,95.00
2018-05-21T10:12:06.627Z,95.20
2018-05-21T10:14:34.867Z,95.20
2018-05-21T10:17:03.885Z,94.50
2018-05-21T10:19:32.230Z,94.50
2018-05-21T10:22:00.387Z,95.10
2018-05-21T10:24:28.623Z,94.30
2018-05-21T10:26:56.864Z,94.70
2018-05-21T10:29:25.867Z,93.60
2018-05-21T10:31:54.890Z,94.20
2018-05-21T10:34:23.140Z,94.20
2018-05-21T10:36:52.158Z,93.40
2018-05-21T10:39:20.393Z,93.30
2018-05-21T10:41:49.417Z,92.80
2018-05-21T10:44:17.664Z,92.70
2018-05-21T10:46:46.671Z,92.70
2018-05-21T10:49:14.920Z,92.70
2018-05-21T10:51:43.168Z,92.00
2018-05-21T10:54:11.409Z,92.60
2018-05-21T10:56:39.667Z,91.90
2018-05-21T10:59:08.664Z,92.70
2018-05-21T11:01:36.911Z,92.80
2018-05-21T11:04:05.159Z,91.90
2018-05-21T11:06:33.421Z,91.40
2018-05-21T11:09:01.675Z,90.00
2018-05-21T11:11:29.915Z,90.70
2018-05-21T11:13:58.170Z,89.10
2018-05-21T11:16:26.416Z,89.40
2018-05-21T11:18:54.666Z,87.90
2018-05-21T11:21:22.915Z,88.20
2018-05-21T11:23:51.163Z,88.10
2018-05-21T11:26:19.404Z,87.40
2018-05-21T11:28:47.654Z,85.70
2018-05-21T11:31:16.685Z,85.40
2018-05-21T11:33:44.927Z,85.00
2018-05-21T11:36:13.940Z,78.50
2018-05-21T11:38:42.187Z,78.80
2018-05-21T11:41:11.214Z,81.30
2018-05-21T11:43:39.464Z,81.30
2018-05-21T11:46:08.468Z,77.40
2018-05-21T11:48:36.727Z,77.40
2018-05-21T11:51:05.745Z,77.50
2018-05-21T11:53:33.989Z,77.90
2018-05-21T11:56:02.229Z,76.90
2018-05-21T11:58:30.588Z,76.00
2018-05-21T12:00:58.823Z,73.60
2018-05-21T12:03:27.836Z,75.50
2018-05-21T12:05:56.083Z,75.40
2018-05-21T12:08:24.337Z,73.20
2018-05-21T12:10:52.575Z,69.80
2018-05-21T12:13:20.834Z,72.20
2018-05-21T12:15:49.079Z,75.10
2018-05-21T12:18:17.327Z,72.10
2018-05-21T12:20:45.572Z,71.00
2018-05-21T12:23:13.815Z,69.60
2018-05-21T12:25:42.840Z,66.40
2018-05-21T12:28:11.078Z,66.30
2018-05-21T12:30:39.324Z,68.30
2018-05-21T12:33:07.575Z,68.70
2018-05-21T12:35:35.823Z,68.90
2018-05-21T12:38:04.926Z,68.70
2018-05-21T12:40:33.080Z,68.70
2018-05-21T12:43:02.100Z,68.70
2018-05-21T12:45:30.345Z,69.10
2018-05-21T12:47:58.597Z,64.20
2018-05-21T12:50:26.850Z,66.50
2018-05-21T12:52:55.097Z,65.40
2018-05-21T12:55:23.340Z,69.10
2018-05-21T12:57:51.584Z,71.20
2018-05-21T13:00:19.832Z,66.80
2018-05-21T13:02:48.071Z,66.80
2018-05-21T13:05:17.156Z,67.10
2018-05-21T13:07:45.335Z,66.20
2018-05-21T13:10:13.596Z,66.20
2018-05-21T13:12:41.835Z,63.80
2018-05-21T13:15:10.088Z,64.40
2018-05-21T13:17:38.345Z,61.60
2018-05-21T13:20:07.354Z,58.90
2018-05-21T13:22:36.373Z,59.90
2018-05-21T13:25:04.623Z,59.90
2018-05-21T13:27:33.624Z,63.30
2018-05-21T13:30:01.892Z,62.80
2018-05-21T13:32:30.896Z,60.10
2018-05-21T13:34:59.251Z,60.10
2018-05-21T13:37:28.278Z,61.70
2018-05-21T13:39:56.512Z,62.30
2018-05-21T13:42:25.526Z,61.50
2018-05-21T13:44:53.768Z,61.30
2018-05-21T13:47:22.019Z,59.90
2018-05-21T13:49:50.260Z,61.20
2018-05-21T13:52:18.593Z,63.00
2018-05-21T13:54:47.525Z,62.40
2018-05-21T13:57:15.769Z,62.30
2018-05-21T13:59:44.013Z,62.70
2018-05-21T14:02:12.281Z,62.90
2018-05-21T14:04:40.512Z,62.90
2018-05-21T14:07:09.530Z,63.50
2018-05-21T14:09:37.774Z,63.40
2018-05-21T14:12:06.787Z,60.60
2018-05-21T14:14:35.038Z,60.30
2018-05-21T14:17:03.280Z,63.60
2018-05-21T14:19:31.525Z,63.70
2018-05-21T14:21:59.773Z,65.80
2018-05-21T14:24:28.778Z,64.90
2018-05-21T14:26:57.036Z,64.80
2018-05-21T14:29:26.135Z,66.40
2018-05-21T14:31:55.068Z,62.40
2018-05-21T14:34:23.312Z,62.40
2018-05-21T14:36:51.559Z,63.40
2018-05-21T14:39:19.803Z,61.80
2018-05-21T14:41:48.049Z,63.70
2018-05-21T14:44:16.375Z,64.60
2018-05-21T14:46:45.328Z,64.40
2018-05-21T14:49:13.570Z,64.40
2018-05-21T14:51:42.583Z,64.40
2018-05-21T14:54:10.832Z,64.40
2018-05-21T14:56:39.078Z,60.90
2018-05-21T14:59:07.327Z,59.60
2018-05-21T15:01:35.573Z,59.10
2018-05-21T15:04:04.667Z,63.00
2018-05-21T15:06:32.827Z,63.10
2018-05-21T15:09:01.848Z,60.10
2018-05-21T15:11:30.084Z,60.00
2018-05-21T15:13:58.343Z,59.00
2018-05-21T15:16:26.588Z,59.30
2018-05-21T15:18:54.836Z,58.30
2018-05-21T15:21:23.844Z,59.10
2018-05-21T15:23:52.097Z,59.10
2018-05-21T15:26:21.109Z,57.80
2018-05-21T15:28:49.358Z,57.70
2018-05-21T15:31:17.601Z,59.40
2018-05-21T15:33:45.844Z,57.40
2018-05-21T15:36:14.115Z,57.40
2018-05-21T15:38:42.351Z,57.00
2018-05-21T15:41:10.596Z,57.50
2018-05-21T15:43:38.853Z,58.80
2018-05-21T15:46:07.101Z,59.90
2018-05-21T15:48:36.127Z,59.90
2018-05-21T15:51:04.368Z,59.90
2018-05-21T15:53:33.375Z,60.00
2018-05-21T15:56:01.631Z,60.00
2018-05-21T15:58:30.642Z,57.70
2018-05-21T16:00:58.895Z,57.60
2018-05-21T16:03:27.907Z,56.20
2018-05-21T16:05:56.204Z,56.20
2018-05-21T16:08:24.437Z,54.90
2018-05-21T16:10:53.457Z,56.00
2018-05-21T16:13:21.706Z,56.10
2018-05-21T16:15:50.729Z,55.20
2018-05-21T16:18:18.972Z,55.10
2018-05-21T16:20:47.219Z,55.30
2018-05-21T16:23:15.544Z,56.50
2018-05-21T16:25:43.719Z,54.50
2018-05-21T16:28:11.963Z,54.80
2018-05-21T16:30:40.238Z,53.80
2018-05-21T16:33:08.483Z,55.70
2018-05-21T16:35:36.789Z,53.90
2018-05-21T16:38:04.977Z,54.00
2018-05-21T16:40:33.988Z,54.20
2018-05-21T16:43:03.003Z,55.70
2018-05-21T16:45:31.253Z,55.80
2018-05-21T16:48:00.272Z,53.90
2018-05-21T16:50:28.498Z,53.90
2018-05-21T16:52:56.748Z,52.70
2018-05-21T16:55:25.004Z,53.50
2018-05-21T16:57:53.252Z,53.10
2018-05-21T17:00:22.284Z,52.00
2018-05-21T17:02:50.523Z,51.90
2018-05-21T17:12:19.739Z,51.00
2018-05-21T17:14:47.975Z,51.80
2018-05-21T17:17:16.224Z,51.80
2018-05-21T17:19:44.479Z,51.70
2018-05-21T17:22:13.603Z,52.30
2018-05-21T17:24:41.752Z,52.30
2018-05-21T17:27:10.757Z,54.40
2018-05-21T17:29:39.003Z,54.40
2018-05-21T17:32:07.249Z,54.20
2018-05-21T17:34:36.274Z,55.50
2018-05-21T17:37:04.530Z,55.50
2018-05-21T17:39:32.776Z,56.20
2018-05-21T17:42:01.017Z,55.70
2018-05-21T17:44:30.031Z,56.00
2018-05-21T17:46:58.281Z,56.00
2018-05-21T17:49:27.291Z,55.50
2018-05-21T17:51:55.536Z,55.40
2018-05-21T17:54:23.783Z,55.60
2018-05-21T17:56:52.022Z,57.10
2018-05-21T17:59:20.276Z,57.60
2018-05-21T18:01:49.329Z,59.80
2018-05-21T18:04:17.640Z,59.80
2018-05-21T18:06:46.646Z,60.60
2018-05-21T18:09:14.901Z,60.50
2018-05-21T18:11:43.139Z,62.30
2018-05-21T18:14:11.400Z,61.80
2018-05-21T18:16:39.693Z,61.80
2018-05-21T18:19:08.665Z,63.20
2018-05-21T18:21:36.915Z,63.10
2018-05-21T18:24:05.937Z,64.10
2018-05-21T18:26:34.176Z,64.10
2018-05-21T18:29:03.193Z,64.80
2018-05-21T18:31:31.448Z,64.80
2018-05-21T18:34:00.455Z,65.00
2018-05-21T18:36:28.704Z,65.00
2018-05-21T18:38:57.728Z,65.90
2018-05-21T18:41:25.968Z,65.90
2018-05-21T18:43:54.223Z,66.40
2018-05-21T18:46:22.481Z,66.30
2018-05-21T18:48:50.725Z,67.30
2018-05-21T18:51:18.977Z,67.40
2018-05-21T18:53:48.046Z,68.00
2018-05-21T18:56:16.245Z,68.00
2018-05-21T18:58:45.255Z,69.10
2018-05-21T19:01:13.519Z,69.00
2018-05-21T19:03:42.532Z,70.10
2018-05-21T19:06:10.840Z,70.00
2018-05-21T19:08:39.798Z,70.30
2018-05-21T19:11:08.048Z,70.20
2018-05-21T19:13:36.293Z,70.70
2018-05-21T19:16:04.545Z,71.10
2018-05-21T19:18:32.796Z,70.70
2018-05-21T19:21:01.063Z,71.30
2018-05-21T19:23:30.077Z,70.50
2018-05-21T19:25:58.320Z,70.50
2018-05-21T19:28:27.338Z,71.50
2018-05-21T19:30:55.583Z,71.40
2018-05-21T19:33:24.631Z,72.60
2018-05-21T19:35:52.865Z,72.50
2018-05-21T19:38:21.885Z,74.00
2018-05-21T19:40:50.124Z,74.00
2018-05-21T19:43:19.168Z,76.70
2018-05-21T19:45:47.408Z,76.70
2018-05-21T19:48:15.666Z,77.60
2018-05-21T19:50:44.681Z,81.00
2018-05-21T19:53:12.939Z,80.90
2018-05-21T19:55:41.948Z,85.10
2018-05-21T19:58:10.200Z,85.00
2018-05-21T20:00:39.214Z,89.50
2018-05-21T20:03:08.228Z,90.70
2018-05-21T20:05:36.473Z,90.70
2018-05-21T20:08:05.490Z,91.70
2018-05-21T20:10:33.724Z,91.70
2018-05-21T20:13:01.993Z,92.10
2018-05-21T20:15:30.241Z,92.50
2018-05-21T20:17:58.487Z,92.80
2018-05-21T20:20:42.401Z,93.00
2018-05-21T20:23:10.698Z,93.50
2018-05-21T20:25:38.947Z,93.70
2018-05-21T20:28:07.192Z,94.00
2018-05-21T20:30:35.536Z,94.70
2018-05-21T20:33:03.781Z,94.80
2018-05-21T20:35:32.936Z,96.20
2018-05-21T20:38:01.176Z,96.20
2018-05-21T20:40:29.428Z,97.30
2018-05-21T20:42:57.672Z,98.10
2018-05-21T20:45:26.017Z,98.80
2018-05-21T20:47:54.168Z,99.50
2018-05-21T20:50:23.177Z,99.90
2018-05-21T20:52:51.417Z,99.90
2018-05-21T20:55:25.549Z,99.90
2018-05-21T20:57:54.553Z,99.90
2018-05-21T21:00:22.798Z,99.90
2018-05-21T21:02:51.040Z,99.90
2018-05-21T21:05:19.296Z,99.90
2018-05-21T21:07:47.535Z,99.90
2018-05-21T21:10:16.571Z,99.90
2018-05-21T21:12:44.823Z,99.90
2018-05-21T21:15:13.063Z,99.90
2018-05-21T21:17:41.316Z,99.90
2018-05-21T21:20:09.576Z,99.90
2018-05-21T21:22:37.820Z,99.90
2018-05-21T21:25:06.834Z,99.90
2018-05-21T21:27:35.085Z,99.90
2018-05-21T21:30:03.338Z,99.90
2018-05-21T21:32:31.700Z,99.90
2018-05-21T21:35:00.610Z,99.90
2018-05-21T21:37:29.623Z,99.90
2018-05-21T21:39:57.869Z,99.90
2018-05-21T21:42:26.117Z,99.90
2018-05-21T21:44:54.360Z,99.90
2018-05-21T21:47:22.608Z,99.90
2018-05-21T21:49:51.628Z,99.90
2018-05-21T21:52:19.888Z,99.90
2018-05-21T21:54:48.886Z,99.90
2018-05-21T21:57:17.144Z,99.90
2018-05-21T21:59:46.162Z,99.90
2018-05-21T22:02:14.407Z,99.90
2018-05-21T22:04:42.649Z,99.90
2018-05-21T22:07:10.895Z,99.90
2018-05-21T22:09:39.139Z,99.90
2018-05-21T22:12:08.160Z,99.90
2018-05-21T22:14:36.404Z,99.90
2018-05-21T22:17:05.421Z,99.90
2018-05-21T22:19:33.671Z,99.90
2018-05-21T22:22:01.919Z,99.90
2018-05-21T22:24:30.167Z,99.90
2018-05-21T22:26:58.416Z,99.90
2018-05-21T22:29:27.445Z,99.90
2018-05-21T22:31:55.677Z,99.90
2018-05-21T22:34:24.691Z,99.90
2018-05-21T22:36:52.952Z,99.90
2018-05-21T22:39:21.211Z,99.90
2018-05-21T22:41:50.259Z,99.90
2018-05-21T22:44:18.517Z,99.90
2018-05-21T22:46:46.767Z,99.90
2018-05-21T22:49:15.780Z,99.90
2018-05-21T22:51:44.032Z,99.90
2018-05-21T22:54:13.045Z,99.90
2018-05-21T22:56:41.289Z,99.90
2018-05-21T22:59:09.536Z,99.90
2018-05-21T23:01:37.780Z,99.90
2018-05-21T23:04:06.048Z,99.90
2018-05-21T23:06:34.296Z,99.90
2018-05-21T23:09:03.317Z,99.90
2018-05-21T23:11:31.570Z,99.90
2018-05-21T23:14:00.598Z,99.90
2018-05-21T23:16:28.844Z,99.90
2018-05-21T23:18:57.855Z,99.90
2018-05-21T23:21:26.099Z,99.90
2018-05-21T23:23:55.109Z,99.90
2018-05-21T23:26:24.122Z,99.90
2018-05-21T23:28:52.359Z,99.90
2018-05-21T23:31:21.376Z,99.90
2018-05-21T23:33:49.623Z,99.90
2018-05-21T23:36:17.875Z,99.90
2018-05-21T23:38:46.887Z,99.90
2018-05-21T23:41:15.143Z,99.90
2018-05-21T23:43:43.389Z,99.90
2018-05-21T23:46:11.644Z,99.90
2018-05-21T23:48:39.889Z,99.90
2018-05-21T23:51:08.197Z,99.90
2018-05-21T23:53:36.396Z,99.90
2018-05-21T23:56:04.654Z,99.90
2018-05-21T23:58:32.895Z,99.90
